Time;durP1;ratioP1;P1;durP2;ratioP2;P2;SDS_P1;SDS_P2;PMS_P1;PMS_P2;Temp;Humidity;BMP_temperature;BMP_pressure;BME280_temperature;BME280_humidity;BME280_pressure;Samples;Min_cycle;Max_cycle;Signal;HPM_P1;HPM_P2
2023/01/27 00:03:12;;;;;;;3.35;0.80;;;14.60;63.40;;;;;;10436238;28;20664;-61
2023/01/27 00:08:14;;;;;;;1.67;0.70;;;14.60;63.40;;;;;;10452786;28;20119;-61
2023/01/27 00:13:26;;;;;;;1.70;0.50;;;14.60;63.40;;;;;;10452382;28;20025;-61
2023/01/27 00:18:27;;;;;;;1.65;0.70;;;14.60;63.50;;;;;;10452184;28;20053;-60
2023/01/27 00:28:47;;;;;;;1.97;0.93;;;14.60;63.50;;;;;;10453114;28;20025;-61
2023/01/27 00:33:48;;;;;;;1.40;0.70;;;14.60;63.50;;;;;;10451840;28;20116;-59
2023/01/27 00:38:49;;;;;;;2.85;0.80;;;14.50;63.40;;;;;;10452896;28;20074;-61
2023/01/27 00:43:52;;;;;;;3.72;0.75;;;14.50;63.40;;;;;;10444577;28;20104;-60
2023/01/27 00:48:53;;;;;;;1.02;0.45;;;14.50;63.40;;;;;;10411470;28;20036;-58
2023/01/27 00:53:54;;;;;;;2.80;0.70;;;14.50;63.30;;;;;;10415372;28;20380;-61
2023/01/27 00:58:54;;;;;;;1.20;0.50;;;14.50;63.40;;;;;;10409340;28;20025;-59
2023/01/27 01:03:57;;;;;;;2.10;0.70;;;14.40;63.30;;;;;;10409847;28;20524;-60
2023/01/27 01:08:58;;;;;;;2.10;0.80;;;14.50;63.40;;;;;;10409085;28;20426;-61
2023/01/27 01:13:59;;;;;;;1.70;0.50;;;14.40;63.40;;;;;;10408587;28;20017;-59
2023/01/27 01:18:59;;;;;;;2.58;1.17;;;14.50;63.40;;;;;;10425936;28;20018;-60
2023/01/27 01:24:00;;;;;;;2.30;0.80;;;14.40;63.40;;;;;;10438348;28;20116;-60
2023/01/27 01:29:00;;;;;;;1.90;0.65;;;14.40;63.40;;;;;;10449748;28;20114;-59
2023/01/27 01:34:01;;;;;;;1.45;0.63;;;14.40;63.40;;;;;;10437321;28;20052;-58
2023/01/27 01:39:02;;;;;;;2.25;0.90;;;14.40;63.30;;;;;;10428745;28;20117;-59
2023/01/27 01:44:23;;;;;;;1.25;0.60;;;14.40;63.40;;;;;;10419865;28;20090;-60
2023/01/27 01:49:38;;;;;;;1.55;0.60;;;14.40;63.40;;;;;;10413403;28;20029;-58
2023/01/27 01:54:48;;;;;;;1.88;0.60;;;14.40;63.50;;;;;;10408509;28;20100;-61
2023/01/27 01:59:57;;;;;;;;;;;14.40;63.50;;;;;;10407387;28;20057;-57
2023/01/27 02:05:08;;;;;;;1.25;0.60;;;14.30;63.40;;;;;;10406966;28;19980;-60
2023/01/27 02:10:10;;;;;;;2.95;1.08;;;14.30;63.50;;;;;;10407139;28;20112;-58
2023/01/27 02:15:11;;;;;;;1.23;0.65;;;14.30;63.40;;;;;;10407865;28;20401;-58
2023/01/27 02:20:43;;;;;;;2.17;0.90;;;14.30;64.00;;;;;;10406137;28;20041;-60
2023/01/27 02:26:16;;;;;;;0.90;0.60;;;14.20;63.30;;;;;;10437136;28;20118;-61
2023/01/27 02:31:17;;;;;;;2.40;1.10;;;14.30;63.60;;;;;;10438757;28;20044;-60
2023/01/27 02:36:18;;;;;;;1.90;0.73;;;14.20;63.40;;;;;;10406983;28;20132;-57
2023/01/27 02:41:28;;;;;;;1.85;0.70;;;14.20;63.50;;;;;;10388965;28;20025;-60
2023/01/27 02:46:29;;;;;;;1.33;0.75;;;14.20;63.40;;;;;;10432287;28;20017;-60
2023/01/27 02:51:30;;;;;;;3.20;0.93;;;14.20;63.40;;;;;;10440379;28;20614;-61
2023/01/27 02:56:32;;;;;;;0.98;0.50;;;14.20;63.50;;;;;;10446110;28;20020;-61
2023/01/27 03:01:32;;;;;;;1.33;0.70;;;14.20;63.50;;;;;;10447375;28;20051;-60
2023/01/27 03:06:33;;;;;;;1.50;0.50;;;14.20;63.50;;;;;;10445858;28;20388;-60
2023/01/27 03:22:12;;;;;;;2.10;0.60;;;14.10;63.50;;;;;;10446410;28;20064;-60
2023/01/27 03:27:12;;;;;;;1.08;0.57;;;14.10;63.30;;;;;;10445984;28;20029;-57
2023/01/27 03:32:13;;;;;;;1.42;0.68;;;14.10;63.40;;;;;;10415541;28;20079;-61
2023/01/27 03:47:52;;;;;;;3.72;1.58;;;14.10;63.30;;;;;;10406921;28;20018;-60
2023/01/27 03:53:01;;;;;;;1.75;1.00;;;14.10;63.30;;;;;;10412703;28;20026;-60
2023/01/27 03:58:19;;;;;;;1.77;1.15;;;14.10;63.30;;;;;;10403457;28;20110;-61
2023/01/27 04:08:42;;;;;;;2.70;1.05;;;14.00;63.30;;;;;;10405010;28;20080;-59
2023/01/27 04:13:43;;;;;;;1.83;0.63;;;14.00;63.20;;;;;;10403342;28;20032;-60
2023/01/27 04:18:45;;;;;;;1.88;0.75;;;14.20;63.10;;;;;;10418024;28;20025;-59
2023/01/27 04:23:46;;;;;;;2.00;1.00;;;14.40;62.50;;;;;;10435638;28;20045;-60
2023/01/27 04:28:47;;;;;;;1.48;0.70;;;14.60;61.80;;;;;;10415783;28;20090;-61
2023/01/27 04:33:48;;;;;;;2.85;0.90;;;14.80;61.40;;;;;;10402271;28;20111;-61
2023/01/27 04:38:49;;;;;;;2.28;0.70;;;14.90;60.80;;;;;;10407912;28;20119;-61
2023/01/27 04:43:49;;;;;;;3.17;1.63;;;15.10;60.40;;;;;;10444548;28;20029;-60
2023/01/27 04:48:50;;;;;;;1.08;0.63;;;15.20;60.30;;;;;;10409652;28;20442;-61
2023/01/27 04:53:51;;;;;;;1.02;0.55;;;15.50;59.80;;;;;;10429277;28;20025;-59
2023/01/27 04:58:52;;;;;;;5.35;0.65;;;15.70;59.20;;;;;;10406857;28;20085;-60
2023/01/27 05:03:53;;;;;;;1.35;0.60;;;15.90;58.50;;;;;;10406538;28;20083;-60
2023/01/27 05:08:54;;;;;;;1.70;0.50;;;16.00;58.40;;;;;;10422381;28;20427;-61
2023/01/27 05:13:55;;;;;;;2.55;0.85;;;16.10;58.10;;;;;;10429544;28;20025;-60
2023/01/27 05:18:55;;;;;;;2.17;0.55;;;16.10;58.00;;;;;;10433620;28;20045;-59
2023/01/27 05:23:56;;;;;;;2.42;0.95;;;16.10;58.00;;;;;;10437983;28;20139;-57
2023/01/27 05:28:58;;;;;;;0.98;0.40;;;16.20;57.90;;;;;;10420535;28;20084;-58
2023/01/27 05:34:00;;;;;;;0.95;0.40;;;16.30;57.80;;;;;;10408460;28;20095;-62
2023/01/27 05:39:01;;;;;;;1.23;0.45;;;16.20;57.70;;;;;;10409544;28;20021;-60
2023/01/27 05:44:02;;;;;;;3.80;0.57;;;16.30;57.60;;;;;;10435625;28;20025;-59
2023/01/27 05:49:04;;;;;;;1.08;0.57;;;16.30;57.60;;;;;;10430937;28;20464;-61
2023/01/27 05:54:05;;;;;;;0.60;0.40;;;16.40;57.60;;;;;;10436361;28;20025;-60
2023/01/27 05:59:06;;;;;;;3.85;0.90;;;16.40;57.30;;;;;;10448455;28;20685;-59
2023/01/27 06:04:09;;;;;;;2.95;0.80;;;16.50;57.80;;;;;;10449449;28;20025;-61
2023/01/27 06:09:10;;;;;;;5.28;0.73;;;16.60;57.50;;;;;;10445100;28;20236;-58
2023/01/27 06:14:10;;;;;;;3.78;1.02;;;16.60;58.00;;;;;;10445685;28;20447;-55
2023/01/27 06:19:11;;;;;;;9.80;0.95;;;16.60;58.30;;;;;;10445065;28;20021;-57
2023/01/27 06:24:12;;;;;;;34.22;3.45;;;16.70;58.70;;;;;;10445199;28;20033;-60
2023/01/27 06:29:13;;;;;;;5.40;0.80;;;16.70;58.60;;;;;;10432113;28;20059;-58
2023/01/27 06:34:13;;;;;;;8.85;1.48;;;16.70;58.70;;;;;;10422015;28;20107;-60
2023/01/27 06:39:15;;;;;;;9.05;2.08;;;16.80;58.80;;;;;;10426949;28;20231;-59
2023/01/27 06:44:16;;;;;;;6.00;1.40;;;16.90;58.70;;;;;;10425902;28;20049;-58
2023/01/27 06:49:16;;;;;;;14.68;1.35;;;16.90;58.80;;;;;;10426171;28;20095;-55
2023/01/27 06:54:17;;;;;;;8.93;1.67;;;16.90;59.40;;;;;;10441701;28;20045;-55
2023/01/27 06:59:18;;;;;;;20.70;2.38;;;17.00;59.20;;;;;;10443264;28;20017;-59
2023/01/27 07:04:18;;;;;;;17.25;2.30;;;16.90;59.70;;;;;;10414108;28;20044;-57
2023/01/27 07:09:19;;;;;;;14.65;2.53;;;16.80;60.00;;;;;;10402211;28;20026;-60
2023/01/27 07:14:20;;;;;;;36.95;5.43;;;17.00;59.70;;;;;;10416369;28;20887;-60
2023/01/27 07:19:20;;;;;;;17.80;3.28;;;16.90;60.00;;;;;;10442103;28;20104;-57
2023/01/27 07:24:21;;;;;;;25.23;3.17;;;16.80;60.00;;;;;;10445567;28;20442;-58
2023/01/27 07:29:22;;;;;;;8.55;1.75;;;16.60;60.50;;;;;;10440761;28;20625;-60
2023/01/27 07:34:22;;;;;;;16.38;2.90;;;16.40;61.70;;;;;;10416814;28;20049;-60
2023/01/27 07:39:25;;;;;;;14.90;2.30;;;16.20;62.20;;;;;;10418111;28;20067;-61
2023/01/27 07:44:27;;;;;;;11.60;1.73;;;16.40;62.10;;;;;;10434516;28;20438;-62
2023/01/27 07:49:27;;;;;;;9.43;1.98;;;16.40;61.70;;;;;;10438198;28;20075;-61
2023/01/27 07:54:28;;;;;;;11.07;2.08;;;16.40;61.80;;;;;;10444688;28;20082;-61
2023/01/27 07:59:29;;;;;;;19.25;2.03;;;16.30;62.00;;;;;;10440202;28;20069;-61
2023/01/27 08:04:29;;;;;;;4.95;1.17;;;16.30;62.00;;;;;;10434004;28;20116;-60
2023/01/27 08:09:30;;;;;;;9.45;1.50;;;16.40;61.80;;;;;;10439592;28;20017;-62
2023/01/27 08:14:31;;;;;;;8.27;1.52;;;16.40;61.60;;;;;;10413177;28;20136;-60
2023/01/27 08:19:31;;;;;;;8.05;1.75;;;16.40;61.80;;;;;;10412456;28;20019;-62
2023/01/27 08:24:32;;;;;;;12.00;1.73;;;16.30;62.10;;;;;;10444659;28;20033;-63
2023/01/27 08:29:33;;;;;;;6.55;1.63;;;16.30;61.50;;;;;;10447340;28;20052;-62
2023/01/27 08:34:34;;;;;;;8.43;2.08;;;16.30;61.40;;;;;;10436845;28;20032;-61
2023/01/27 08:39:34;;;;;;;6.20;1.40;;;16.30;61.30;;;;;;10445307;28;20516;-63
2023/01/27 08:44:35;;;;;;;7.13;1.67;;;16.50;60.70;;;;;;10454866;28;20392;-60
2023/01/27 08:49:36;;;;;;;13.57;2.22;;;16.60;60.80;;;;;;10435626;28;20025;-61
2023/01/27 08:54:36;;;;;;;10.52;1.20;;;16.70;65.10;;;;;;10438422;28;20017;-58
2023/01/27 08:59:37;;;;;;;8.23;1.25;;;17.00;65.50;;;;;;10417090;28;20026;-61
2023/01/27 09:04:40;;;;;;;12.77;2.15;;;17.20;64.90;;;;;;10444447;28;20115;-61
2023/01/27 09:09:41;;;;;;;6.05;1.20;;;17.20;64.20;;;;;;10430991;28;20014;-58
2023/01/27 09:14:42;;;;;;;5.18;0.75;;;17.30;61.80;;;;;;10433917;28;20451;-60
2023/01/27 09:19:42;;;;;;;7.07;0.90;;;17.30;61.20;;;;;;10431681;28;20089;-62
2023/01/27 09:24:43;;;;;;;8.25;1.70;;;17.10;61.80;;;;;;10437627;28;20119;-58
2023/01/27 09:29:44;;;;;;;8.20;1.20;;;17.10;63.00;;;;;;10413366;28;20017;-61
2023/01/27 09:34:44;;;;;;;4.75;1.10;;;17.30;63.20;;;;;;10413582;28;20104;-61
2023/01/27 09:39:53;;;;;;;4.25;0.68;;;17.40;62.80;;;;;;10416572;28;20104;-61
2023/01/27 09:45:28;;;;;;;10.60;1.43;;;17.50;62.70;;;;;;10441983;28;20036;-62
2023/01/27 09:50:44;;;;;;;4.60;0.77;;;17.50;62.90;;;;;;10427213;28;20025;-59
2023/01/27 09:56:35;;;;;;;9.40;1.05;;;17.50;62.60;;;;;;10416616;28;20067;-58
2023/01/27 10:01:49;;;;;;;5.93;1.33;;;17.50;63.10;;;;;;10423365;28;20080;-61
2023/01/27 10:07:13;;;;;;;9.02;1.00;;;17.50;63.00;;;;;;10439073;28;20020;-58
2023/01/27 10:12:38;;;;;;;6.10;1.13;;;17.50;62.90;;;;;;10429111;28;20029;-62
2023/01/27 10:18:02;;;;;;;9.10;1.10;;;17.50;62.90;;;;;;10434924;28;20072;-59
2023/01/27 10:23:31;;;;;;;7.90;0.70;;;17.60;62.30;;;;;;10440088;28;20115;-59
2023/01/27 10:28:33;;;;;;;7.05;0.68;;;17.70;61.60;;;;;;10425838;28;20022;-61
2023/01/27 10:33:54;;;;;;;7.07;1.02;;;17.50;61.90;;;;;;10427886;28;20392;-60
2023/01/27 10:39:35;;;;;;;6.38;1.10;;;17.50;61.80;;;;;;10431315;28;20063;-62
2023/01/27 10:45:16;;;;;;;4.57;1.10;;;17.60;61.80;;;;;;10430474;28;20032;-62
2023/01/27 10:50:34;;;;;;;4.03;0.65;;;17.70;61.70;;;;;;10436008;28;20063;-57
2023/01/27 10:55:42;;;;;;;7.10;0.68;;;17.60;61.70;;;;;;10444941;28;20548;-60
2023/01/27 11:00:47;;;;;;;6.00;0.65;;;17.60;61.40;;;;;;10415066;28;20130;-60
2023/01/27 11:05:55;;;;;;;4.60;0.82;;;17.70;61.30;;;;;;10445886;28;20070;-63
2023/01/27 11:16:35;;;;;;;12.75;1.42;;;17.70;61.10;;;;;;10426890;28;20044;-63
2023/01/27 11:21:37;;;;;;;4.03;0.60;;;17.50;61.90;;;;;;10445559;28;20028;-57
2023/01/27 11:26:47;;;;;;;3.80;1.10;;;17.50;62.00;;;;;;10445329;28;20025;-63
2023/01/27 11:31:55;;;;;;;6.50;1.15;;;17.50;61.90;;;;;;10430257;28;20532;-61
2023/01/27 11:36:56;;;;;;;3.17;0.73;;;17.50;61.70;;;;;;10402668;28;20229;-60
2023/01/27 11:41:58;;;;;;;1.67;0.57;;;17.60;61.80;;;;;;10419655;28;20040;-61
2023/01/27 11:47:00;;;;;;;3.80;0.68;;;17.60;61.80;;;;;;10428973;28;20113;-59
2023/01/27 11:52:13;;;;;;;9.10;1.23;;;17.70;62.00;;;;;;10426273;28;20499;-59
2023/01/27 11:57:23;;;;;;;3.28;0.55;;;17.70;61.80;;;;;;10454169;28;20029;-60
2023/01/27 12:02:53;;;;;;;5.90;0.73;;;17.60;61.70;;;;;;10456797;28;20029;-62
2023/01/27 12:07:56;;;;;;;;;;;17.60;61.30;;;;;;10459484;28;20031;-62
2023/01/27 12:13:17;;;;;;;4.78;0.47;;;17.70;61.30;;;;;;10427616;28;19908;-60
2023/01/27 12:18:18;;;;;;;1.83;0.50;;;17.90;60.80;;;;;;10436585;28;20121;-61
2023/01/27 12:23:32;;;;;;;9.80;1.05;;;18.00;60.30;;;;;;10444569;28;20028;-61
2023/01/27 12:28:40;;;;;;;2.15;0.40;;;18.00;60.40;;;;;;10444682;28;20108;-62
2023/01/27 12:33:49;;;;;;;3.13;0.60;;;18.00;59.90;;;;;;10457004;28;20100;-59
2023/01/27 12:39:00;;;;;;;4.10;0.50;;;18.00;59.90;;;;;;10454423;28;20506;-60
2023/01/27 12:44:18;;;;;;;4.88;0.70;;;17.80;60.70;;;;;;10442437;28;20307;-58
2023/01/27 12:49:20;;;;;;;1.42;0.60;;;17.80;60.80;;;;;;10448828;28;20361;-58
2023/01/27 12:54:31;;;;;;;4.20;0.80;;;17.70;60.90;;;;;;10452796;28;20100;-58
2023/01/27 12:59:33;;;;;;;4.32;0.73;;;17.70;60.90;;;;;;10467389;28;20170;-55
2023/01/27 13:04:33;;;;;;;5.68;0.70;;;17.70;61.00;;;;;;10446649;28;20031;-59
2023/01/27 13:10:00;;;;;;;2.47;0.40;;;17.70;60.90;;;;;;10434652;28;20025;-60
2023/01/27 13:15:26;;;;;;;4.30;0.70;;;17.60;60.60;;;;;;10436642;28;20049;-62
2023/01/27 13:20:40;;;;;;;4.07;1.13;;;17.50;61.20;;;;;;10438697;28;20045;-60
2023/01/27 13:26:09;;;;;;;8.73;1.45;;;17.50;61.60;;;;;;10428503;28;20025;-62
2023/01/27 13:31:20;;;;;;;3.85;0.60;;;17.50;61.50;;;;;;10429617;28;20032;-60
2023/01/27 13:36:33;;;;;;;3.42;0.57;;;17.50;61.20;;;;;;10431034;28;20037;-61
2023/01/27 13:42:20;;;;;;;6.53;0.70;;;17.40;61.30;;;;;;10425871;28;20116;-61
2023/01/27 13:47:29;;;;;;;6.63;1.05;;;17.40;61.50;;;;;;10431024;28;20014;-59
2023/01/27 13:52:29;;;;;;;7.70;0.80;;;17.50;61.60;;;;;;10432872;28;20472;-61
2023/01/27 13:57:57;;;;;;;3.80;0.90;;;17.50;61.40;;;;;;10435702;28;20291;-59
2023/01/27 14:03:25;;;;;;;15.15;1.67;;;17.30;61.60;;;;;;10451529;28;20116;-58
2023/01/27 14:09:13;;;;;;;20.48;2.72;;;17.10;62.70;;;;;;10428451;28;20116;-59
2023/01/27 14:15:03;;;;;;;15.65;1.55;;;17.10;62.30;;;;;;10418450;28;20064;-59
2023/01/27 14:20:07;;;;;;;19.60;2.10;;;17.30;61.50;;;;;;10419962;28;20023;-61
2023/01/27 14:25:11;;;;;;;18.15;2.42;;;17.30;61.70;;;;;;10418862;28;20021;-60
2023/01/27 14:30:31;;;;;;;17.42;2.63;;;17.40;61.60;;;;;;10447436;28;20025;-60
2023/01/27 14:35:57;;;;;;;20.33;3.63;;;17.40;62.20;;;;;;10414885;28;20027;-61
2023/01/27 14:41:26;;;;;;;22.90;3.67;;;17.50;62.20;;;;;;10406574;28;20053;-61
2023/01/27 14:46:56;;;;;;;36.60;4.40;;;17.30;61.80;;;;;;10430648;28;20020;-65
2023/01/27 14:52:12;;;;;;;26.42;3.97;;;17.10;61.30;;;;;;10440989;28;20021;-63
2023/01/27 14:57:16;;;;;;;26.25;4.70;;;17.10;60.90;;;;;;10433876;28;20045;-61
2023/01/27 15:02:42;;;;;;;18.35;3.67;;;17.20;60.40;;;;;;10440567;28;20112;-62
2023/01/27 15:07:56;;;;;;;16.15;2.83;;;17.30;60.00;;;;;;10418495;28;20021;-61
2023/01/27 15:13:34;;;;;;;22.95;2.85;;;17.10;60.00;;;;;;10425784;28;20018;-63
2023/01/27 15:18:43;;;;;;;20.83;2.95;;;17.20;60.20;;;;;;10405991;28;20392;-63
2023/01/27 15:24:24;;;;;;;24.95;3.38;;;17.40;60.60;;;;;;10446744;28;20128;-64
2023/01/27 15:29:27;;;;;;;13.95;3.45;;;17.50;60.70;;;;;;10442326;28;20017;-59
2023/01/27 15:34:28;;;;;;;27.58;4.18;;;17.50;61.10;;;;;;10444019;28;20025;-63
2023/01/27 15:39:29;;;;;;;22.30;4.22;;;17.50;61.20;;;;;;10425842;28;20021;-64
2023/01/27 15:44:36;;;;;;;25.38;4.57;;;17.50;61.40;;;;;;10426262;28;20400;-61
2023/01/27 15:49:47;;;;;;;31.75;4.43;;;17.40;61.60;;;;;;10431625;28;20405;-62
2023/01/27 15:54:50;;;;;;;26.88;5.65;;;17.40;61.40;;;;;;10428308;28;20528;-61
2023/01/27 15:59:53;;;;;;;29.98;4.43;;;17.30;61.30;;;;;;10404558;28;20021;-61
2023/01/27 16:05:21;;;;;;;25.55;5.55;;;17.30;61.00;;;;;;10417564;28;20086;-61
2023/01/27 16:10:26;;;;;;;35.83;4.68;;;17.30;61.30;;;;;;10433761;28;20022;-61
2023/01/27 16:15:34;;;;;;;28.98;5.13;;;17.30;62.00;;;;;;10426153;28;20436;-60
2023/01/27 16:21:05;;;;;;;21.05;3.80;;;17.10;62.60;;;;;;10422343;28;20039;-60
2023/01/27 16:26:36;;;;;;;26.55;5.15;;;16.90;63.60;;;;;;10419488;28;20037;-62
2023/01/27 16:31:39;;;;;;;22.67;3.83;;;16.60;64.00;;;;;;10430443;28;20029;-63
2023/01/27 16:36:40;;;;;;;11.30;2.70;;;16.50;63.90;;;;;;10428945;28;20550;-59
2023/01/27 16:41:53;;;;;;;13.95;3.78;;;16.90;62.20;;;;;;10434718;28;20033;-60
2023/01/27 16:47:01;;;;;;;19.45;3.60;;;17.40;60.60;;;;;;10429782;28;20063;-59
2023/01/27 16:52:04;;;;;;;13.02;3.88;;;17.30;60.80;;;;;;10414384;28;20061;-60
2023/01/27 16:57:07;;;;;;;11.80;3.85;;;17.50;63.60;;;;;;10443842;28;20236;-60
2023/01/27 17:02:20;;;;;;;12.27;3.38;;;17.80;68.80;;;;;;10437985;28;20056;-60
2023/01/27 17:07:21;;;;;;;11.57;2.95;;;18.00;65.80;;;;;;10412462;28;20443;-58
2023/01/27 17:12:35;;;;;;;8.27;3.08;;;18.00;65.50;;;;;;10436996;28;20039;-57
2023/01/27 17:17:38;;;;;;;6.15;1.85;;;17.80;65.50;;;;;;10439926;28;20500;-59
2023/01/27 17:22:42;;;;;;;15.38;2.58;;;17.80;65.50;;;;;;10439788;28;20044;-61
2023/01/27 17:27:44;;;;;;;9.70;2.10;;;17.70;65.60;;;;;;10437560;28;20028;-59
2023/01/27 17:32:49;;;;;;;12.45;3.05;;;17.60;65.60;;;;;;10412936;28;20508;-59
2023/01/27 17:37:50;;;;;;;11.38;2.38;;;17.50;65.40;;;;;;10426037;28;20025;-59
2023/01/27 17:42:51;;;;;;;10.85;2.47;;;17.40;65.30;;;;;;10445500;28;20317;-58
2023/01/27 17:47:52;;;;;;;14.38;2.50;;;17.30;65.10;;;;;;10405723;28;20024;-59
2023/01/27 17:52:55;;;;;;;11.98;2.47;;;17.30;64.90;;;;;;10413192;28;20029;-59
2023/01/27 17:58:05;;;;;;;7.65;1.80;;;17.20;64.70;;;;;;10422686;28;20032;-59
2023/01/27 18:03:33;;;;;;;13.55;3.15;;;17.30;64.80;;;;;;10430741;28;20040;-59
2023/01/27 18:08:35;;;;;;;12.73;2.53;;;17.30;64.60;;;;;;10456491;28;20016;-58
2023/01/27 18:13:39;;;;;;;13.80;1.83;;;17.20;64.90;;;;;;10415285;28;20373;-59
2023/01/27 18:18:40;;;;;;;9.07;2.15;;;17.20;65.10;;;;;;10419746;28;20049;-59
2023/01/27 18:23:56;;;;;;;15.18;2.53;;;17.20;64.40;;;;;;10415490;28;20135;-60
2023/01/27 18:29:04;;;;;;;10.25;2.15;;;17.20;64.20;;;;;;10442956;28;20045;-59
2023/01/27 18:34:05;;;;;;;8.30;1.75;;;17.20;64.00;;;;;;10412488;28;20029;-60
2023/01/27 18:39:30;;;;;;;11.25;1.92;;;17.10;63.80;;;;;;10427152;28;20025;-58
2023/01/27 18:44:34;;;;;;;9.57;1.77;;;17.10;63.60;;;;;;10418726;28;20053;-60
2023/01/27 18:49:35;;;;;;;12.57;1.80;;;17.20;63.40;;;;;;10412534;28;20009;-59
2023/01/27 18:54:36;;;;;;;4.72;1.73;;;17.20;63.20;;;;;;10417758;28;20028;-59
2023/01/27 18:59:37;;;;;;;6.30;1.55;;;17.20;62.80;;;;;;10400739;28;20104;-60
2023/01/27 19:04:37;;;;;;;7.10;1.60;;;17.30;62.70;;;;;;10446390;28;20029;-59
2023/01/27 19:09:38;;;;;;;3.13;1.38;;;17.40;62.20;;;;;;10438403;28;20637;-59
2023/01/27 19:14:40;;;;;;;6.72;1.63;;;17.40;61.80;;;;;;10440810;28;20053;-58
2023/01/27 19:19:41;;;;;;;5.28;1.80;;;17.50;61.60;;;;;;10436689;28;20028;-59
2023/01/27 19:24:44;;;;;;;6.07;1.40;;;17.50;61.50;;;;;;10442728;28;20546;-59
2023/01/27 19:29:45;;;;;;;6.60;1.30;;;17.50;61.40;;;;;;10433208;28;20017;-59
2023/01/27 19:34:45;;;;;;;4.35;1.08;;;17.50;61.30;;;;;;10432309;28;20116;-60
2023/01/27 19:39:47;;;;;;;2.85;1.17;;;17.40;61.80;;;;;;10429560;28;20460;-59
2023/01/27 19:44:48;;;;;;;5.47;1.27;;;17.50;61.70;;;;;;10452766;28;20825;-59
2023/01/27 19:49:49;;;;;;;3.33;1.17;;;17.50;61.60;;;;;;10415707;28;20044;-59
2023/01/27 19:54:49;;;;;;;3.65;1.10;;;17.50;61.70;;;;;;10421914;28;20640;-59
2023/01/27 19:59:50;;;;;;;5.60;1.85;;;17.50;61.50;;;;;;10421828;28;20021;-60
2023/01/27 20:04:50;;;;;;;3.08;1.02;;;17.50;61.40;;;;;;10404416;28;20453;-60
2023/01/27 20:09:51;;;;;;;6.70;1.60;;;17.50;61.30;;;;;;10434406;28;20044;-61
2023/01/27 20:14:52;;;;;;;5.97;1.58;;;17.50;61.10;;;;;;10441881;28;20179;-60
2023/01/27 20:19:52;;;;;;;3.10;0.80;;;17.50;61.10;;;;;;10432704;28;20043;-60
2023/01/27 20:24:53;;;;;;;2.88;1.15;;;17.50;61.10;;;;;;10454037;28;20460;-60
2023/01/27 20:29:54;;;;;;;2.92;1.65;;;17.50;61.20;;;;;;10419589;28;20486;-59
2023/01/27 20:34:58;;;;;;;2.03;1.10;;;17.40;61.30;;;;;;10441164;28;20568;-60
2023/01/27 20:39:58;;;;;;;2.83;1.08;;;17.30;61.60;;;;;;10435881;28;20036;-59
2023/01/27 20:44:59;;;;;;;2.45;0.90;;;17.20;61.80;;;;;;10429829;28;20033;-59
2023/01/27 20:50:00;;;;;;;1.75;0.73;;;17.00;62.10;;;;;;10418789;28;20384;-60
2023/01/27 20:55:01;;;;;;;1.73;1.00;;;16.90;62.50;;;;;;10429316;28;20031;-59
2023/01/27 21:00:02;;;;;;;3.08;1.00;;;16.80;62.70;;;;;;10419606;28;20033;-60
2023/01/27 21:05:03;;;;;;;2.05;0.95;;;16.70;62.90;;;;;;10409534;28;20556;-63
2023/01/27 21:10:05;;;;;;;1.20;0.75;;;16.50;63.10;;;;;;10436150;28;20373;-59
2023/01/27 21:15:08;;;;;;;2.90;1.00;;;16.40;63.30;;;;;;10408918;28;20069;-60
2023/01/27 21:20:10;;;;;;;4.75;1.45;;;16.40;63.40;;;;;;10409177;28;20018;-60
2023/01/27 21:25:10;;;;;;;2.20;0.77;;;16.30;63.60;;;;;;10448264;28;20542;-62
2023/01/27 21:30:12;;;;;;;3.08;1.13;;;16.20;63.70;;;;;;10449723;28;20024;-59
2023/01/27 21:35:12;;;;;;;1.80;0.68;;;16.10;63.80;;;;;;10449686;28;20032;-61
2023/01/27 21:40:13;;;;;;;2.05;0.70;;;16.10;63.90;;;;;;10449603;28;20040;-60
2023/01/27 21:45:14;;;;;;;2.15;0.77;;;16.00;63.90;;;;;;10430989;28;20025;-60
2023/01/27 21:50:16;;;;;;;1.85;0.93;;;16.00;64.00;;;;;;10416381;28;20009;-60
2023/01/27 21:55:23;;;;;;;1.92;1.08;;;15.90;64.10;;;;;;10421005;28;20017;-60
2023/01/27 22:00:26;;;;;;;4.25;1.33;;;15.90;64.20;;;;;;10416532;28;20024;-59
2023/01/27 22:05:30;;;;;;;1.92;0.82;;;15.80;64.20;;;;;;10411207;28;20053;-57
2023/01/27 22:10:31;;;;;;;1.88;1.08;;;15.80;64.20;;;;;;10418848;28;20014;-58
2023/01/27 22:15:32;;;;;;;2.95;0.93;;;15.70;64.20;;;;;;10433275;28;20451;-60
2023/01/27 22:20:32;;;;;;;1.92;1.00;;;15.70;64.20;;;;;;10408341;28;20095;-60
2023/01/27 22:25:33;;;;;;;1.20;0.88;;;15.70;64.80;;;;;;10448865;28;20384;-60
2023/01/27 22:30:34;;;;;;;2.35;1.00;;;15.70;64.40;;;;;;10448469;28;20107;-60
2023/01/27 22:35:34;;;;;;;1.95;0.82;;;15.60;64.30;;;;;;10447543;28;20123;-59
2023/01/27 22:40:35;;;;;;;1.20;0.80;;;15.60;64.50;;;;;;10448756;28;20116;-59
2023/01/27 22:45:39;;;;;;;1.90;1.00;;;15.50;64.40;;;;;;10426151;28;20020;-61
2023/01/27 22:50:40;;;;;;;1.52;0.80;;;15.50;64.40;;;;;;10421729;28;20025;-59
2023/01/27 22:55:41;;;;;;;2.45;1.05;;;15.40;64.20;;;;;;10432580;28;20036;-58
2023/01/27 23:00:42;;;;;;;1.73;0.90;;;15.40;64.20;;;;;;10410052;28;20053;-59
2023/01/27 23:05:42;;;;;;;1.33;0.70;;;15.40;64.00;;;;;;10431651;28;20068;-60
2023/01/27 23:10:43;;;;;;;1.77;1.00;;;15.40;64.10;;;;;;10430800;28;20045;-60
2023/01/27 23:15:44;;;;;;;1.15;0.88;;;15.30;63.90;;;;;;10415140;28;20056;-60
2023/01/27 23:20:45;;;;;;;3.40;1.25;;;15.30;63.90;;;;;;10419971;28;20400;-59
2023/01/27 23:25:46;;;;;;;1.40;0.90;;;15.30;63.90;;;;;;10429072;28;20068;-60
2023/01/27 23:30:49;;;;;;;1.88;0.90;;;15.30;63.90;;;;;;10432012;28;20472;-59
2023/01/27 23:35:56;;;;;;;0.93;0.70;;;15.20;63.90;;;;;;10411259;28;20063;-60
2023/01/27 23:41:06;;;;;;;2.47;1.20;;;15.20;63.90;;;;;;10412426;28;20517;-60
2023/01/27 23:46:09;;;;;;;1.95;0.93;;;15.20;63.90;;;;;;10419124;28;20022;-60
2023/01/27 23:51:12;;;;;;;2.05;1.20;;;15.20;63.80;;;;;;10412322;28;20358;-59
2023/01/27 23:56:16;;;;;;;1.70;0.82;;;15.10;63.90;;;;;;10403390;28;20164;-60
